MapTableWeb Map

Choose a state:
Most recent flow and stage for Georgia
(Stations highlighted in red are currently above flood stage)
USGS
station
ID
USGS station name NWS
flood
stage
(ft)
Most recent
stage
(ft)
Most recent
flow
(cfs)
Historical
peaks
(cfs)
Most recent
local
date/time
NWS
station
ID
02176930 CHATTOOGA RIVER AT BURRELLS FORD,NR PINE MTN,GA 7 1.59 322 4,120 2018-05-24 16:00:00 BURG1
02177000 CHATTOOGA RIVER NEAR CLAYTON, GA 15 2.39 1,210 33,300 2018-05-24 16:00:00 CYNG1
02178400 TALLULAH RIVER NEAR CLAYTON, GA 20 2.89 295 8,500 2018-05-24 16:45:00 TCLG1
02181350 TALLULAH R AT TERRORA PWRHSE, NR TALLULAH FALLS,GA   2.65 117 836 2018-05-24 16:30:00  
02181580 TALLULAH RIVER AB POWERHOUSE, NR TALLULAH FALLS,GA 36 5.15 40.1 21,000 2018-05-24 16:15:00 TFLG1
02188600 BEAVERDAM CREEK ABOVE ELBERTON, GA 9 3.11 71.5 4,100 2018-05-24 16:00:00 BVDG1
02191227 GROVE CREEK AT US 441 AND GA 15 NEAR COMMERCE, GA 15 7.16 78.9 780 2018-05-24 16:15:00 GCBG1
02191300 BROAD RIVER ABOVE CARLTON, GA 15 4.79 1,440 70,000 2018-05-24 16:15:00 CARG1
02192000 BROAD RIVER NEAR BELL, GA 21 7.81 2,730 79,400 2018-05-24 16:30:00 BELG1
02193340 KETTLE CREEK NEAR WASHINGTON, GA 14 3.34 11.0 4,150 2018-05-24 16:45:00 KETG1
02193500 LITTLE RIVER NEAR WASHINGTON, GA 19 6.31 252 15,500 2018-05-24 16:00:00 WTNG1
02195320 KIOKEE CREEK AT GA 104, NEAR EVANS, GA 19 1.33 64.9 9,260 2018-05-24 16:00:00 EVNG1
02195520 SAVANNAH RIVER NEAR EVANS, GA   16.85

 

  2018-05-24 16:00:00  
02196485 AUGUSTA CANAL NR AUGUSTA, GA (UPPER)   6.98 2,990 4,820 2018-05-24 16:30:00  
02196670 SAVANNAH RIVER JEFFERSON DAVIS BR, AT AUGUSTA, GA   15.46

 

  2018-05-24 16:45:00  
021968385 BUTLER CR BELOW BUTLER CR RSVR AT FORT GORDON, GA   1.87 18.5   2018-05-24 16:00:00  
02196999 SAVANNAH RV ABOVE NEW SAV. LOCK AND DAM   114.59

 

  2018-05-24 16:45:00  
02197000 SAVANNAH RIVER AT AUGUSTA, GA 117.5 106.36 13,700 350,000 2018-05-24 16:45:00 AUGG1
02197020 SPIRIT CREEK AT US 1, NEAR AUGUSTA, GA 12 3.05 22.0 4,070 2018-05-24 16:00:00 SPTG1
021973269 SAVANNAH RIVER NEAR WAYNESBORO, GA   16.46 15,500 24,000 2018-05-24 16:15:00  
02197500 SAVANNAH R AT BURTONS FERRY BR NR MILLHAVEN, GA 15 12.23 14,000 220,000 2018-05-24 15:45:00 BFYG1
02197598 BRUSHY CREEK AT CAMPGROUND ROAD, NEAR WRENS, GA   1.94 17.0 453 2018-05-24 16:15:00 WRNG1
02197830 BRIER CREEK NEAR WAYNESBORO, GA 11 6.05 278 48,000 2018-05-24 16:30:00 BCWG1
02198000 BRIER CREEK AT MILLHAVEN, GA 15 3.98 447 64,000 2018-05-24 16:00:00 BRIG1
02198100 BEAVERDAM CREEK NEAR SARDIS, GA   2.35 22.0 4,070 2018-05-24 16:00:00  
02198375 SAVANNAH RIVER NEAR ESTILL, SC   10.63 13,700 15,600 2018-05-24 16:00:00  
02198500 SAVANNAH RIVER NEAR CLYO, GA 11 9.16 12,000 270,000 2018-05-24 16:15:00 CLYG1
02198690 EBENEZER CREEK AT SPRINGFIELD, GA 17 8.20 190 8,960 2018-05-24 16:00:00 EBZG1
02198810 ABERCORN CREEK NEAR SAVANNAH,GA   3.54 -3,050   2018-05-24 16:45:00  
02198820 ABERCORN CREEK AT MOUTH NEAR SAVANNAH, GA   3.12

 

  2018-05-24 16:30:00  
02198840 SAVANNAH RIVER NEAR PORT WENTWORTH, GA   3.87 -5,820   2018-05-24 16:45:00  
02198920 SAVANNAH RIVER AT GA 25, AT PORT WENTWORTH, GA   3.23 -30,400 2018-05-24 16:15:00  
02198950 MIDDLE RIVER AT GA 25 AT PORT WENTWORTH, GA   3.94 -8,790   2018-05-24 16:30:00  
021989715 SAVANNAH RIVER AT GARDEN CITY, GA   1.55

 

  2018-05-24 16:45:00  
021989773 SAVANNAH RIVER AT USACE DOCK, AT SAVANNAH, GA   3.65 -56,500   2018-05-24 16:30:00  
021989784 L BACK RIVER ABOVE LUCKNOW CANAL, NR LIMEHOUSE, SC   3.42

 

  2018-05-24 16:30:00  
021989791 LITTLE BACK RIVER AT F&W DOCK, NEAR LIMEHOUSE, SC   2.35

 

  2018-05-24 15:45:00  
021989792 LITTLE BACK RIVER AT GA 25 AT PORT WENTWORTH, GA   3.49 -3,520   2018-05-24 16:30:00  
0219897993 SAVANNAH RIVER AT ELBA ISLAND, NEAR SAVANNAH, GA   3.44

 

  2018-05-24 16:30:00  
02198980 SAVANNAH RIVER AT FORT PULASKI, GA   3.05 -231,000   2018-05-24 16:15:00  
02200120 OGEECHEE RIVER AT GA 88, NEAR GRANGE, GA 18 9.47 236 10,400 2018-05-24 16:15:00 GRGG1
02201000 WILLIAMSON SWAMP CREEK AT DAVISBORO, GA 10 3.90 105 9,200 2018-05-24 16:45:00 DAVG1
02201230 OGEECHEE RIVER AT MIDVILLE, GA 6 4.31 1,130 59,000 2018-05-24 16:00:00 MDVG1
02202040 OGEECHEE RIVER AT ROCKY FORD RD, NR ROCKY FORD, GA 13 7.47 1,860 75,000 2018-05-24 16:00:00 RFDG1
02202190 OGEECHEE RIVER AT GA 24, NEAR OLIVER, GA   11.27 2,280 76,000 2018-05-24 16:30:00  
02202500 OGEECHEE RIVER NEAR EDEN, GA 11 6.05 1,350 78,000 2018-05-24 16:15:00 EDEG1
02202600 BLACK CREEK NEAR BLITCHTON, GA 18 3.47 40.2 11,100 2018-05-24 16:15:00 BLIG1
02202680 OGEECHEE RIVER AT GA 204, NEAR ELLABELL, GA   6.19 1,120 80,000 2018-05-24 16:15:00  
02203000 CANOOCHEE RIVER NEAR CLAXTON, GA 11 3.25 317 20,500 2018-05-24 16:15:00 CNOG1
02203518 CANOOCHEE RIVER AT BRIDGE 38, AT FORT STEWART, GA 17 7.75 649 20,000 2018-05-24 16:30:00 FSBG1
02203536 OGEECHEE RIVER AT US 17, NEAR RICHMOND HILL, GA   0.43 -5,850 110,000 2018-05-24 16:15:00  
02203557 PEACOCK CREEK AT ATLANTIC RR LINE NR MCINTOSH, GA 14 4.38 8.39 1,400 2018-05-24 16:15:00 MTHG1
022035975 HUDSON CREEK AT MERIDIAN LANDING, NEAR MERIDIAN,GA   2.01

 

  2018-05-24 16:45:00  
02203603 SOUTH RIVER AT SPRINGDALE ROAD, AT ATLANTA, GA 17 2.67

 

2018-05-24 16:15:00 SEPG1
02203655 SOUTH RIVER AT FORREST PARK ROAD, AT ATLANTA, GA 15 3.27 19.3 3,400 2018-05-24 16:15:00 STHG1
02203700 INTRENCHMENT CREEK NEAR ATLANTA, GA 11 2.84 29.1 4,100 2018-05-24 16:15:00 INTG1
02203831 DOOLITTLE CREEK AT FLAT SHOALS RD, NR DECATUR, GA 8 1.12 2.88   2018-05-24 16:00:00 DLCG1
02203863 SHOAL CREEK AT COLUMBIA DRIVE NEAR ATLANTA, GA 11 3.84 6.34 565 2018-05-24 16:15:00 SHOG1
02203873 COBBS CREEK AT RAINBOW DR, NEAR DECATUR, GA   1.88

 

  2018-05-24 16:30:00  
02203900 SOUTH RIVER AT FLAKES MILL ROAD NR ATLANTA, GA 13 3.03 121 12,500 2018-05-24 16:00:00 SFMG1
02203950 SNAPFINGER CREEK NEAR DECATUR, GA 12 2.77 9.26 3,800 2018-05-24 16:15:00 SFCG1
02203960 SNAPFINGER CR AT THOMPSON MILL RD NR LITHONIA, GA 16 3.43 28.7 2,990 2018-05-24 16:30:00 SFHG1
02204037 POLE BRIDGE CR AT EVANS MILL RD NEAR LITHONIA, GA 8 1.49 21.9 655 2018-05-24 16:30:00 PBCG1
02204070 SOUTH RIVER AT KLONDIKE ROAD, NEAR LITHONIA, GA 12 5.54 292 17,000 2018-05-24 16:45:00 SOUG1
02204130 HONEY CREEK AT GA 212, NEAR CONYERS, GA 9 2.26 27.1 3,090 2018-05-24 16:45:00 HONG1
02204285 PATES CREEK NEAR FLIPPEN, GA 12 1.46 33.4 4,400 2018-05-24 16:45:00 FLPG1
02204520 SOUTH RIVER AT GA 81, AT SNAPPING SHOALS, GA 12 7.79 1,110 22,500 2018-05-24 16:15:00 SPGG1
02205522 PEW CREEK AT PATTERSON RD, NEAR LAWRENCEVILLE, GA 11 3.39 2.20 5,000 2018-05-24 16:15:00 LAWG1
02205865 SWEETWATER CREEK AT CLUB DRIVE NEAR LILBURN, GA 11 4.06 85.9 3,600 2018-05-24 16:15:00 STWG1
02207120 YELLOW RIVER AT GA 124, NEAR LITHONIA, GA 15 5.43 797 16,500 2018-05-24 16:45:00 YELG1
02207130 STONE MTN CR AT SILVER HILL RD, NEAR STONE MTN, GA 9 2.63

 

  2018-05-24 16:30:00 STCG1
02207135 LITTLE STONE MTN CR NEAR STONE MOUNTAIN, GA 8 2.40 2.03   2018-05-24 16:30:00 LSMG1
02207160 STONE MOUNTAIN CREEK AT GA24 NEAR LITHONIA, GA 12 4.08 37.6 1,500 2018-05-24 16:45:00 SOCG1
02207185 NO BUSINESS CREEK AT LEE ROAD, BELOW SNELLVILLE,GA 9 3.24 20.8 1,800 2018-05-24 16:45:00 NOBG1
02207200 SWIFT CREEK NEAR LITHONIA, GA 9 1.88

 

800 2018-05-24 16:30:00 SFTG1
02207220 YELLOW RIVER AT PLEASANT HILL ROAD, NR LITHONIA,GA 13 4.81 1,010 22,900 2018-05-24 16:45:00 YLOG1
02207300 YELLOW RIVER AT MILSTEAD, GA   6.86

 

  2018-05-24 16:30:00  
02207335 YELLOW RIVER AT GEES MILL ROAD, NEAR MILSTEAD, GA 11 5.07 1,380 20,800 2018-05-24 16:30:00 MYRG1
02207385 BIG HAYNES CREEK AT LENORA ROAD, NR SNELLVILLE, GA 10 3.50 64.9 1,750 2018-05-24 16:00:00 BIGG1
02207400 BRUSHY FORK CREEK AT BEAVER ROAD, NR LOGANVILLE,GA 9 2.15 42.4 782 2018-05-24 16:00:00 LOGG1
02207414 RANDY POYNTER LAKE AT SPILLWAY, NEAR MILSTEAD, GA   734.97

 

  2018-05-24 16:00:00  
02207418 BIG HAYNES CREEK AT JACK TURNER DAM,NR MILSTEAD GA 7 3.05 126 1,900 2018-05-24 16:00:00 MBHG1
02207435 LITTLE HAYNES CREEK AT DIAL MILL RD NR MILSTEAD GA 10 4.17 58.6 2,850 2018-05-24 16:45:00 MLHG1
02207448 BIG HAYNES CREEK AT BALD ROCK ROAD, NR MILSTEAD GA 12 4.30 235   2018-05-24 16:00:00 BHCG1
02208000 YELLOW RIVER ROCKY PLAINS RD NR ROCKY PLAINS, GA 18 10.95 2,290 7,730 2018-05-24 16:45:00 RKYG1
02208050 ALCOVY RIVER NEAR LAWRENCEVILLE, GA 15 -0.32 3.70 2,200 2018-05-24 16:30:00 LWRG1
02208130 SHOAL CREEK AT PAPER MILL RD, NR LAWRENCEVILLE, GA 11 1.59 1.80 2,280 2018-05-24 16:30:00 LAVG1
02208150 ALCOVY RIVER AT NEW HOPE ROAD, NEAR GRAYSON, GA 9 2.87 37.6 8,630 2018-05-24 16:45:00 ALCG1
02208450 ALCOVY RIVER ABOVE COVINGTON, GA 12 4.93 324 7,620 2018-05-24 16:00:00 ACYG1
02208485 CORNISH CREEK AT LOWER JERSEY RD, NR COVINGTON, GA 11 2.24 11.2 568 2018-05-24 16:45:00 CCJG1
02208487 LITTLE CORNISH CR (COUNTY ROAD 95) NR OXFORD, GA 9 0.48 2.73 173 2018-05-24 16:30:00 LCBG1
02208493 CORNISH CREEK AT HAZELBRAND RD NR COVINGTON, GA 14 6.64 8.16 710 2018-05-24 16:00:00 CNCG1
02209000 ALCOVY RIVER BELOW COVINGTON, GA 11 3.47 348 12,400 2018-05-24 16:15:00 HPTG1
02209360 EAST BEAR CREEK AT POPLAR ROAD, NR MANSFIELD, GA 9 1.02 36.6 915 2018-05-24 16:00:00 EBCG1
02210500 OCMULGEE RIVER NEAR JACKSON, GA 19 6.50 4,770 69,000 2018-05-24 16:30:00 JACG1
02211375 CABIN CREEK AT NORTH SECOND STREET, NR GRIFFIN, GA 13 3.73 5.63 2,250 2018-05-24 16:00:00 GFNG1
02211800 TOWALIGA RIVER AT GA 83 NEAR JULIETTE, GA 16 5.81 1,170 9,680 2018-05-24 16:45:00 TOWG1
02212600 FALLING CREEK NEAR JULIETTE, GA 13 3.89 175 7,920 2018-05-24 16:45:00 FALG1
02212735 OCMULGEE RIVER AT GA 18, AT DAMES FERRY, GA 16 5.98 5,930 80,000 2018-05-24 16:00:00 DFYG1
02213000 OCMULGEE RIVER AT MACON, GA 18 14.26 6,740 107,000 2018-05-24 16:30:00 MACG1
02213500 TOBESOFKEE CREEK NEAR MACON, GA 20 10.91 2,770 54,000 2018-05-24 16:45:00 TOBG1
02214075 ECHECONNEE CREEK AT HOUSTON RD, NEAR BYRON, GA 15 12.09 859 8,000 2018-05-24 16:15:00 BYNG1
02214590 BIG INDIAN CREEK AT US 341, NEAR CLINCHFIELD, GA 30 15.75 126 2,220 2018-05-24 16:15:00 CLFG1
02215000 OCMULGEE RIVER AT US 341, AT HAWKINSVILLE, GA 20 6.25 4,150 100,000 2018-05-24 16:45:00 HAWG1
02215100 TUCSAWHATCHEE CREEK NEAR HAWKINSVILLE, GA 11 1.72 56.2 11,900 2018-05-24 16:45:00 TSCG1
02215260 OCMULGEE RIVER AT ABBEVILLE, GA 12 5.93 3,680 100,000 2018-05-24 16:45:00 ABBG1
02215500 OCMULGEE RIVER AT LUMBER CITY, GA 15 4.61 4,260 98,400 2018-05-24 16:45:00 LBRG1
02215900 LITTLE OCMULGEE RIVER AT GA 149, AT SCOTLAND, GA 12 5.34 254 4,830 2018-05-24 16:15:00 SCTG1
02216180 TURNPIKE CREEK NEAR MCRAE, GA 10 6.01 41.4 4,980 2018-05-24 16:00:00 MCRG1
02217274 WHEELER CREEK AT BILL CHEEK ROAD, NEAR AUBURN, GA 6 1.23 1.16 928 2018-05-24 16:15:00 WLRG1
02217297 MULBERRY CREEK NEAR WINDER, GA 17 2.43 165 3,230 2018-05-24 16:45:00 WNRG1
02217475 MIDDLE OCONEE RIVER NEAR ARCADE, GA 16 4.38 553 13,800 2018-05-24 16:45:00 ACDG1
02217500 MIDDLE OCONEE RIVER NEAR ATHENS, GA 18 2.36 762 19,600 2018-05-24 16:30:00 MOCG1
02217615 NORTH OCONEE R AT WOODBRIDGE RD, NEAR COMMERCE, GA 15 2.57 154 2,940 2018-05-24 16:15:00 CMRG1
02217643 PARKS CREEK AT LYLE FIELD RD NR JEFFERSON, GA 9 2.73 3.28 422 2018-05-24 16:00:00 PACG1
02217770 NORTH OCONEE RIVER AT COLLEGE ST, AT ATHENS, GA 19 7.55 981 14,500 2018-05-24 16:00:00 NOCG1
02218300 OCONEE RIVER NEAR PENFIELD, GA 13 6.76 2,140 61,000 2018-05-24 16:00:00 PNFG1
02218565 APALACHEE RIVER AT FENCE ROAD, NEAR DACULA, GA 8 0.47 7.92 2,190 2018-05-24 16:00:00 DACG1
02219000 APALACHEE RIVER NEAR BOSTWICK, GA 9 2.44 278 11,200 2018-05-24 16:45:00 BWKG1
02220788 LITTLE RIVER AT NEWBORN RD NEAR NEWBORN, GA 12 4.32 42.9 1,530 2018-05-24 16:15:00 NWBG1
02220900 LITTLE RIVER NEAR EATONTON, GA   4.92 270 15,000 2018-05-24 16:30:00 EANG1
02221525 MURDER CREEK BELOW EATONTON, GA 10 2.19 171 9,630 2018-05-24 16:30:00 MTLG1
02223000 OCONEE RIVER AT MILLEDGEVILLE, GA 22 10.32 4,050 140,000 2018-05-24 16:30:00 MLGG1
02223056 OCONEE RIVER AT AVANT MINE, NEAR OCONEE, GA 18 7.16 3,390 11,200 2018-05-24 16:45:00 OCOG1
02223110 BUFFALO CREEK AT GA 272, NEAR OCONEE, GA 15 9.75 254 7,540 2018-05-24 16:30:00 BFOG1
02223190 COMMISSIONER CREEK AT US 441, AT MCINTYRE, GA 13 10.15 247 13,000 2018-05-24 16:30:00 MITG1
02223248 OCONEE RIVER NEAR OCONEE, GA 17 7.47 3,780 96,900 2018-05-24 16:45:00 OCNG1
02223360 BIG SANDY CREEK AT US 441, NEAR IRWINTON, GA 10 4.64 83.8 4,320 2018-05-24 16:30:00 IWTG1
02223382 OCONEE RIVER NEAR DUBLIN, GA  

 

2,820 1996-10-03 00:45:00  
02223500 OCONEE RIVER AT DUBLIN, GA 21 7.40 4,530 96,700 2018-05-24 16:45:00 DBNG1
02224500 OCONEE RIVER NEAR MOUNT VERNON, GA 16 6.44 4,490 96,000 2018-05-24 16:00:00 MTVG1
02224940 ALTAMAHA RIVER AT US 221, NR CHARLOTTEVILLE, GA 13 5.43 8,110 210,000 2018-05-24 16:45:00 CHRG1
02225000 ALTAMAHA RIVER NEAR BAXLEY, GA 74.5 6.62 8,500 230,000 2018-05-24 16:45:00 BAXG1
02225270 OHOOPEE RIVER AT GA 297, NEAR SWAINSBORO, GA 18 11.02 338 5,460 2018-05-24 16:30:00 SWOG1
02225500 OHOOPEE RIVER NEAR REIDSVILLE, GA 11 6.37 696 47,000 2018-05-24 16:00:00 REDG1
02226000 ALTAMAHA RIVER AT DOCTORTOWN, GA 12 7.77 7,550 300,000 2018-05-24 16:00:00 DCTG1
02226160 ALTAMAHA RIVER NEAR EVERETT CITY, GA 13 6.54 Eqp 300,000 2018-05-24 16:15:00 EVRG1
02226180 BRUNSWICK RIVER AT ST. SIMONS ISLAND, GA 5 2.34

 

  2018-05-24 16:45:00 BRNG1
02226362 SATILLA RIVER AT GA 158, NEAR WAYCROSS, GA 14 5.80 302 34,500 2018-05-24 16:30:00 TMOG1
02226500 SATILLA RIVER NEAR WAYCROSS, GA 16 8.17 423 42,100 2018-05-24 16:45:00 AYSG1
02227270 ALABAHA RIVER AT GA 203, NEAR BLACKSHEAR, GA 9 4.08 96.1 21,000 2018-05-24 16:30:00 ABAG1
02227500 LITTLE SATILLA RIVER NEAR OFFERMAN, GA 9 4.39 133 38,000 2018-05-24 16:45:00 OFFG1
02228000 SATILLA RIVER AT ATKINSON, GA 13 8.00 1,270 110,000 2018-05-24 16:45:00 ATKG1
02228070 SATILLA RIVER AT US 17, AT WOODBINE, GA 4 0.15 -24,100 2018-05-24 16:00:00 SRWG1
02228295 CUMBERLAND SOUND AT SEA CAMP DOCK, NR ST MARYS, GA 5 1.23

 

  2018-05-24 16:00:00 CSAG1
02231175 ST MARYS RIVER AT FERRY LANDING NEAR FOLKSTON, GA 7 2.19 3,160   2018-05-24 16:15:00 SMTG1
02231254 ST MARY'S RIVER AT I-95, NEAR KINGSLAND, GA 3.5 0.40 -19,200 25,800 2018-05-24 16:15:00 KLNG1
02314495 SUWANNEE RIVER ABOVE FARGO, GA   6.77

 

13,200 2018-05-24 16:00:00  
02314500 SUWANNEE RIVER AT US 441, AT FARGO, GA 104 4.31 360 13,800 2018-05-24 16:00:00 FGOG1
02315920 ALAPAHA RIVER AT GA 125/32 NEAR IRWINVILLE, GA 272 1.73 16.0 8,860 2018-05-24 16:30:00 IVLG1
02316000 ALAPAHA RIVER NEAR ALAPAHA, GA 223 2.70 41.3 16,000 2018-05-24 16:00:00 ALAG1
02317500 ALAPAHA RIVER AT STATENVILLE, GA 100 1.48 93.6 33,400 2018-05-24 16:45:00 STNG1
023177483 WITHLACOOCHEE RIVER AT MCMILLAN RD,NEAR BEMISS, GA 135 1.80 21.0 37,500 2018-05-24 16:30:00 VDSG1
02317755 WITHLACOOCHEE RIVER AT US 41 NEAR VALDOSTA, GA 125 3.89

 

38,000 2018-05-24 16:30:00 VDRG1
02317797 LITTLE RIVER AT UPPER TY TY ROAD, NEAR TIFTON, GA   1.41 49.1 6,020 2018-05-24 16:15:00 TWCG1
02318000 LITTLE RIVER NEAR ADEL, GA 189 3.94 188 38,800 2018-05-24 16:00:00 ADLG1
02318380 LITTLE RIVER AT GA 122, NEAR HAHIRA, GA 151 5.62 82.8 45,000 2018-05-24 16:15:00 HRAG1
02318500 WITHLACOOCHEE RIVER AT US 84, NEAR QUITMAN, GA 104 2.43 127 62,000 2018-05-24 16:00:00 QUTG1
02318700 OKAPILCO CREEK AT GA 333, NEAR QUITMAN, GA 119 4.19 17.6 18,500 2017-12-31 23:45:00 OKAG1
02327355 OCHLOCKONEE RIVER AT GA 188, NEAR COOLIDGE, GA 13 2.65 33.3 35,000 2018-05-24 16:30:00 CLDG1
02327500 OCHLOCKONEE RIVER NEAR THOMASVILLE, GA 15 3.54 102 66,000 2018-05-24 16:45:00 TMLG1
02329342 LITTLE ATTAPULGUS CREEK AT ATTAPULGUS, GA   1.70 16.3 175 2018-05-24 16:00:00  
02330450 CHATTAHOOCHEE RIVER AT HELEN, GA 6 1.24 212 10,500 2018-05-24 16:00:00 HDCG1
02331000 CHATTAHOOCHEE RIVER NEAR LEAF, GA   2.57 546 22,500 2018-05-24 16:45:00  
023312495 SOQUE RIVER AT GA 197, NEAR CLARKESVILLE, GA 13 4.94 345 4,730 2018-05-24 16:00:00 CSQG1
02331600 CHATTAHOOCHEE RIVER NEAR CORNELIA, GA 14 1.70 1,110 27,000 2018-05-24 16:45:00 DCNG1
02333500 CHESTATEE RIVER NEAR DAHLONEGA, GA 19 1.89 403 22,700 2018-05-24 16:45:00 DGAG1
02334400 LAKE SIDNEY LANIER NEAR BUFORD, GA   1072.00

 

  2018-05-24 16:15:00 CMMG1
02334401 CHATTAHOOCHEE RIVER (BUFORD DAM) NR BUFORD, GA   912.30

 

  2018-05-24 16:15:00  
02334430 CHATTAHOOCHEE RIVER AT BUFORD DAM, NEAR BUFORD, GA 12 -0.50 613 12,800 2018-05-24 16:45:00 BUFG1
02334480 RICHLAND CREEK AT SUWANEE DAM ROAD, NEAR BUFORD,GA 10 0.59 12.5 3,090 2018-05-24 16:30:00 RLCG1
02334578 LEVEL CREEK AT SUWANEE DAM ROAD, NEAR SUWANEE, GA 9 3.45 4.62 2,800 2018-05-24 16:15:00 SWAG1
02334620 DICK CREEK AT OLD ATLANTA RD, NEAR SUWANEE, GA 10 0.87 9.10 1,680 2018-05-24 16:00:00 DICG1
02334653 CHATTAHOOCHEE R 0.76 MI US MCGINNIS FY SUWANEE GA 22 1.79 734 10,900 2018-05-24 16:30:00 WSWG1
02334885 SUWANEE CREEK AT SUWANEE, GA 8 1.86 123 7,870 2018-05-24 16:15:00 SWEG1
02335000 CHATTAHOOCHEE RIVER NEAR NORCROSS, GA 12 2.18 960 55,000 2018-05-24 16:15:00 NCRG1
02335350 CROOKED CREEK NEAR NORCROSS, GA 11 4.22 28.7 2,740 2018-05-24 16:00:00 CRKG1
02335450 CHATTAHOOCHEE RIVER ABOVE ROSWELL, GA 9 3.30 1,110 21,100 2018-05-24 16:00:00 RWLG1
02335580 BIG CREEK AT GA 9, NEAR CUMMING, GA 6 0.89 43.7 4,800 2018-05-24 16:45:00 CMGG1
02335700 BIG CREEK NEAR ALPHARETTA, GA 7 2.78 71.7 6,100 2018-05-24 16:45:00 APHG1
02335757 BIG CREEK BELOW HOG WALLOW CREEK AT ROSWELL, GA 10 2.99 101 6,240 2018-05-24 16:15:00 RWSG1
02335790 WILLEO CREEK AT GA 120, NEAR ROSWELL, GA 12 1.26 14.1 6,200 2018-05-24 16:45:00 WLOG1
02335810 CHATTAHOOCHEE RIVER AT MORGAN FALLS DAM, GA   865.13

 

  2018-05-24 16:15:00  
02335815 CHATTAHOOCHEE RIVER BELOW MORGAN FALLS DAM, GA 821 811.81 1,470 35,500 2018-05-24 16:45:00 MGFG1
023358685 SEWELL MILL CREEK AT GA 120, NEAR MARIETTA, GA 11 1.58 14.2 4,570 2018-05-24 16:30:00 SMCG1
02335870 SOPE CREEK NEAR MARIETTA, GA 12 1.39 24.9 9,500 2018-05-24 16:45:00 MARG1
02335880 CHATT R AT POWERS FY & I-285 NR ATLANTA, GA 13 4.12

 

63,000 2018-05-24 16:30:00 VNPG1
02335910 ROTTENWOOD CR AT INTERSTATE N PKWY, NR SMYRNA, GA 14 2.39 15.1 4,500 2018-05-24 16:00:00 SMAG1
02335990 CHATTAHOOCHEE RIVER AT US 41, AT ATLANTA, GA 14 4.97

 

28,900 2018-05-24 16:45:00 VIXG1
02336000 CHATTAHOOCHEE RIVER AT ATLANTA, GA 14 3.50 1,600 64,000 2018-05-24 16:45:00 VING1
02336030 N.F. PEACHTREE CREEK AT GRAVES RD, NR DORAVILLE,GA 12 1.67 1.24 2,850 2018-05-24 16:00:00 NFPG1
02336120 N.F. PEACHTREE CREEK, BUFORD HWY, NEAR ATLANTA, GA 13 4.21 25.5 6,140 2018-05-24 16:15:00 NPBG1
02336152 SOUTH FORK PEACHTREE AT CASA RD, NR CLARKSTON, GA 10 3.19 2.09 1,470 2018-05-24 16:15:00 SFPG1
023362075 BURNT FORK CREEK AT MONTREAL RD, NEAR TUCKER, GA   1.46

 

  2018-05-24 16:45:00  
023362095 BURNT FORK CR AT MILLWOOD WAY NEAR CLARKSTON, GA 9 1.18 1.55 1,020 2018-05-24 16:00:00 BFCG1
02336240 S.F. PEACHTREE CREEK JOHNSON RD, NEAR ATLANTA, GA 13 3.61 18.1 4,900 2018-05-24 16:15:00 SPJG1
02336300 PEACHTREE CREEK AT ATLANTA, GA 17 2.80 70.8 21,000 2018-05-24 16:00:00 AANG1
02336313 WOODALL CREEK AT DEFOORS FERRY RD, AT ATLANTA, GA 15 0.53 1.52 2018-05-24 16:30:00 WDCG1
02336340 NANCY CREEK AT JOHNSON FERRY RD, AT CHAMBLEE, GA 16 4.45 13.8 4,200 2018-05-24 16:30:00 NCDG1
02336360 NANCY CREEK AT RICKENBACKER DRIVE, AT ATLANTA, GA 11 1.03 18.4 4,500 2018-05-24 16:15:00 NCKG1
02336410 NANCY CREEK AT WEST WESLEY ROAD, AT ATLANTA, GA 12 2.10 37.1 6,440 2018-05-24 16:15:00 NANG1
02336490 CHATTAHOOCHEE RIVER AT GA 280, NEAR ATLANTA, GA 24 5.71 1,810 42,300 2018-05-24 16:00:00 CHAG1
02336517 PROCTOR CREEK AT HORTENSE WAY, AT ATLANTA, GA 12 1.24 3.27 4,200 2018-05-24 16:15:00 PCTG1
023365218 PROCTOR CREEK TRIB AT SPRING RD, AT ATLANTA, GA   4.32 0.97   2018-05-24 16:15:00  
02336526 PROCTOR CREEK AT JACKSON PARKWAY, AT ATLANTA, GA 13 3.23 5.47 8,000 2018-05-24 16:15:00 PRCG1
02336635 NICKAJACK CREEK AT US 78/278, NEAR MABLETON, GA 10 2.15 28.3 7,500 2018-05-24 16:00:00 NICG1
02336658 NORTH UTOY CREEK AT PEYTON ROAD, NEAR ATLANTA, GA  

 

2.90 1,800 2007-04-04 00:45:00  
02336728 UTOY CREEK AT GREAT SOUTHWEST PKWY NR ATLANTA, GA 18 3.00 22.4 1,540 2018-05-24 16:15:00 UTYG1
02336840 SWEETWATER CREEK,BROWNSVILLE RD,POWDER SPRINGS,GA 13 3.97 57.8 30,000 2018-05-24 14:45:00 PDSG1
02336870 POWDER SPRINGS CREEK NEAR POWDER SPRINGS, GA 11 1.70 14.7 8,940 2018-05-24 15:45:00 POWG1
02336910 SWEETWATER CR 0.05 MI US RR BRIDGE AT AUSTELL, GA 19 6.21 127 2,970 2018-05-24 15:45:00 NATG1
02336968 NOSES CREEK AT POWDER SPRINGS RD,POWDER SPRINGS,GA 11 2.41 32.9 3,000 2018-05-24 16:30:00 NOSG1
02336986 OLLEY CREEK AT CLAY ROAD, NEAR AUSTELL, GA 12 2.15 8.80 638 2018-05-24 15:45:00 OLYG1
02337000 SWEETWATER CREEK NEAR AUSTELL, GA 10 2.02 228 31,500 2018-05-24 16:45:00 AUSG1
02337040 SWEETWATER CREEK BELOW AUSTELL, GA   2.22 344   2018-05-24 15:45:00  
02337170 CHATTAHOOCHEE RIVER NEAR FAIRBURN, GA   3.24 3,660 75,000 2018-05-24 16:30:00 FBNG1
02337410 DOG RIVER AT GA 5, NEAR FAIRPLAY, GA 13 3.65 58.9 59,900 2018-05-24 16:15:00 DOGG1
02337498 SNAKE CRK DS SNAKE CRK RESERVIOR NR WHITESBURG, GA 13 3.70 33.3 1,500 2018-05-24 16:00:00 WHGG1
02337500 SNAKE CREEK NEAR WHITESBURG, GA 12 2.24 39.0 13,500 2018-05-24 16:45:00 SNKG1
02338000 CHATTAHOOCHEE RIVER NEAR WHITESBURG, GA 17 6.38 5,800 95,000 2018-05-24 16:15:00 WHTG1
02338500 CHATTAHOOCHEE RIVER AT GA 100, AT FRANKLIN, GA 23 14.33 8,210 105,000 2018-05-24 16:00:00 FRNG1
02338523 HILLABAHATCHEE CREEK AT THAXTON RD, NR FRANKLIN,GA 12 2.06 18.5 2,720 2018-05-24 16:45:00 HILG1
02338660 NEW RIVER AT GA 100, NEAR CORINTH, GA   5.22 174 10,000 2018-05-24 16:00:00 NRVG1
02338840 YELLOWJACKET CREEK-HAMMETT RD, BLW HOGANSVILLE, GA 8 2.26 103 9,830 2018-05-24 16:30:00 YJCG1
02339400 WEST POINT LAKE NEAR WEST POINT, GA 641 635.87

 

  2018-05-24 16:15:00 WETG1
02339402 CHATTAHOOCHEE RIVER BELOW WEST POINT DAM, GA   563.37

 

  2018-05-24 16:15:00  
02339500 CHATTAHOOCHEE RIVER AT WEST POINT, GA 17 7.87 13,100 134,000 2018-05-24 16:00:00 WTPG1
02341460 CHATTAHOOCHEE RIVER AT 14TH ST, AT COLUMBUS, GA 27 23.86 19,800 95,200 2018-05-24 16:00:00 CBUG1
02341800 UPATOI CREEK NEAR COLUMBUS, GA   16.46 10,100 46,300 2018-05-24 16:30:00 UPAG1
02342850 HANNAHATCHEE CREEK AT UNION ROAD, AT UNION, GA 16 2.52 260 9,280 2018-05-24 16:45:00 UNIG1
02342881 CHATTAHOOCHEE RIVER AT SPUR 39, NEAR OMAHA, GA   189.94 44,600 150,000 2018-05-24 16:30:00  
02343225 PATAULA CREEK NEAR GEORGETOWN, GA   5.47 671 65,000 2018-05-24 16:45:00 MRSG1
02343240 WALTER F. GEORGE RESERVOIR NEAR FORT GAINES, GA   189.65

 

  2018-05-24 16:15:00 FOGG1
02343241 CHATTAHOOCHEE R BELOW WFG DAM AB FT. GAINES, GA 134 117.13

 

  2018-05-24 16:15:00 FOGG1
023432415 CHATTAHOOCHEE R .36 MI DS WFG DAM NR FT GAINES, GA   117.22 37,100 156,000 2018-05-24 16:30:00  
02343801 CHATTAHOOCHEE RIVER NEAR COLUMBIA, AL 106 90.62 31,600 202,000 2018-05-24 16:00:00 COLA1
02343805 CHATTAHOOCHEE RIVER AT MILE 46 NEAR COLUMBIA, ALA   90.57 30,400 160,000 2018-05-24 16:45:00  
02343940 SAWHATCHEE CREEK AT CEDAR SPRINGS, GA   3.81 96.1 5,380 2018-05-24 16:15:00 CEDG1
02344280 CAMP CREEK AT HELMER ROAD, NEAR FAYETTEVILLE, GA 7 1.33 19.4 541 2018-05-24 16:15:00 CCKG1
02344327 MORNING CRK AT WESTBRIDGE RD, NR FAYETTEVILLE, GA 14 4.98 38.8 2018-05-24 16:15:00 MCFG1
02344350 FLINT RIVER NEAR LOVEJOY, GA 12 6.38 598 19,000 2018-05-24 16:45:00 LOVG1
02344396 FLINT RIVER AT WOOLSEY ROAD, NEAR WOOLSEY, GA 48 41.77 685 9,780 2018-05-24 15:45:00 WSEG1
02344423 LAKE HORTON (HEADWATER) NEAR FAYETTEVILLE, GA   779.68

 

  2018-05-24 16:15:00  
02344424 LAKE HORTON (TAILRACE) NEAR FAYETTEVILLE, GA   746.31 2.05   2018-05-24 16:15:00  
02344478 SHOAL CREEK AT SHOAL CREEK ROAD, NEAR GRIFFIN, GA 7 0.96 16.8 1,520 2018-05-24 16:45:00 SHLG1
02344500 FLINT RIVER NEAR GRIFFIN, GA 12 5.46 439 31,500 2018-05-24 16:45:00 GRFG1
02344605 LINE CREEK BELOW GA 54, NEAR PEACHTREE CITY, GA 12 4.62 77.6 2,550 2018-05-24 16:00:00 PHCG1
02344620 SHOAL CREEK AT GA54, NEAR SHARPSBURG, GA 10 3.58 56.4 648 2018-05-24 16:30:00 SHPG1
02344630 LINE CREEK BLW LAKE MCINTOSH, NR PEACHTREE CITY,GA 10 3.55 133 2018-05-24 16:00:00 LMCG1
02344650 LAKE KEDRON NEAR PEACHTREE CITY, GA   825.93

 

  2018-05-24 16:15:00  
02344655 FLAT CR DS OF LAKE KEDRON, NR PEACHTREE CITY, GA 10 3.11 26.8 553 2018-05-24 16:15:00 LKTG1
02344671 LAKE PEACHTREE (HEADWATER) AT PEACHTREE CITY, GA   778.42

 

  2018-05-24 16:15:00  
02344673 FLAT CREEK (DS OF LAKE) AT PEACHTREE CITY, GA 10 2.83 26.3 690 2018-05-24 16:15:00 LPTG1
02344700 LINE CREEK NEAR SENOIA, GA 10 4.26 195 28,400 2018-05-24 16:45:00 LING1
02344724 WHITEWATER CREEK AT EASTIN RD, NR FAYETTEVILLE, GA 10 3.56 41.0 855 2018-05-24 16:45:00 WCEG1
02344736 WHITEWATER CR AT SHERWOOD RD, NR FAYETTEVILLE, GA 12 6.19 151 853 2018-05-24 16:15:00 WCSG1
02344748 WHITEWATER CR (DS STARRS MILL DAM)FAYETTEVILLE, GA 10 4.30 334 1,230 2018-05-24 16:15:00 SMFG1
02344872 FLINT RIVER BELOW BIG BRANCH, NEAR MOLENA, GA 28 8.97 1,640 30,000 2018-05-24 16:00:00 MOLG1
02346180 FLINT RIVER NEAR THOMASTON, GA 11 6.93

 

62,000 2018-05-24 16:15:00 TMSG1
02346310 POTATO CREEK AT COUNTY LINE RD, NR ORCHARD HILL,GA 11 5.64 3.55 1,810 2018-05-24 16:15:00 POTG1
02347500 FLINT RIVER AT US 19, NEAR CARSONVILLE, GA 18 23.93 32,600 100,000 2018-05-24 16:45:00 CLUG1
02349605 FLINT RIVER AT GA 26, NEAR MONTEZUMA, GA 20 6.13 4,480 136,000 2018-05-24 16:15:00 MNTG1
02349900 TURKEY CREEK AT BYROMVILLE, GA 10 5.50 33.2 5,820 2018-05-24 16:45:00 BVLG1
02350080 LIME CREEK NEAR COBB, GA  

 

14.0 6,360 2010-10-01 00:45:00  
02350512 FLINT RIVER AT GA 32, NEAR OAKFIELD, GA 23 7.76 6,470 112,000 2018-05-24 16:45:00 OKFG1
02350600 KINCHAFOONEE CREEK AT PRESTON, GA 7 4.33 403 14,500 2018-05-24 16:00:00 PRSG1
02350900 KINCHAFOONEE CREEK AT PINEWOOD ROAD, NR DAWSON, GA 13 5.80 551 29,500 2018-05-24 16:45:00 DSNG1
02351500 MUCKALEE CREEK NEAR AMERICUS, GA 10 3.97 226 33,500 2018-05-24 16:45:00 MUCG1
02351890 MUCKALEE CREEK AT GA 195, NEAR LEESBURG, GA 13 7.91 620 64,400 2018-05-24 16:45:00 MCKG1
02352500 FLINT RIVER AT ALBANY, GA 26 6.25 5,540 120,000 2018-05-24 16:45:00 ABNG1
02353000 FLINT RIVER AT NEWTON, GA 24 7.20 4,970 100,000 2018-05-24 16:45:00 NEWG1
02353265 ICHAWAYNOCHAWAY CREEK AT GA 37, NEAR MORGAN, GA 14 8.07 263 10,000 2018-05-24 16:00:00 MGNG1
02353400 PACHITLA CREEK NEAR EDISON, GA 7.8 3.98 176 43,000 2018-05-24 16:45:00 PCHG1
02353500 ICHAWAYNOCHAWAY CREEK AT MILFORD, GA 11 1.86 755 53,000 2018-05-24 16:00:00 MLFG1
02354350 CHICKASAWHATCHEE CREEK NEAR ALBANY, GA   2.71 136 349 2018-05-24 16:45:00  
02354475 SPRING CREEK NEAR LEARY, GA   2.75 35.9 55.0 2018-05-24 16:00:00  
02354500 CHICKASAWHATCHEE CREEK AT ELMODEL, GA 10 1.23 187 16,000 2018-05-24 16:15:00 ELMG1
02354800 ICHAWAYNOCHAWAY CREEK NEAR ELMODEL, GA 18 5.80 921 29,200 2018-05-24 16:00:00 EMOG1
02355350 ICHAWAYNOCHAWAY CREEK BELOW NEWTON, GA 17 4.40 941 31,000 2018-05-24 16:30:00 ICHG1
02355662 FLINT RIVER AT RIVERVIEW PLANTATION, NR HOPEFUL,GA 30 8.21 6,830 64,600 2018-05-24 16:00:00 HOPG1
02356000 FLINT RIVER AT BAINBRIDGE, GA 25 19.24 6,750 108,000 2018-05-24 16:45:00 BGEG1
02356638 SPRING CREEK APPROX .25 MI US US27 NR COLQUITT, GA 10 4.89 99.5 2018-05-24 16:30:00 CQUG1
02357000 SPRING CREEK NEAR IRON CITY, GA 16 4.93 354 34,500 2018-05-24 16:00:00 IRCG1
02357150 SPRING CREEK NEAR REYNOLDSVILLE, GA   77.19 696   2018-05-24 16:30:00 REYG1
02357500 LAKE SEMINOLE NEAR CHATTAHOOCHEE, FL   76.87

 

  2018-05-24 16:45:00  
02357700 APALACHICOLA RIVER BL WOODRUFF DAM, NR SNEADS, FL 66 46.22

 

  2018-05-24 16:45:00 WDRF1
02379500 CARTECAY RIVER NEAR ELLIJAY, GA 7 2.36 361 20,000 2018-05-24 16:30:00 EECG1
02380500 COOSAWATTEE RIVER NEAR ELLIJAY, GA 8 2.52 844 25,000 2018-05-24 16:45:00 ELIG1
02381090 MOUNTAINTOWN CREEK AT GA 282, NEAR ELLIJAY, GA 12 3.82 286 2,530 2018-05-24 16:15:00 MNCG1
02381400 CARTERS LAKE NEAR CARTERS, GA   1073.50

 

  2018-05-24 16:15:00 CTRG1
02381401 CARTERS LAKE TAILRACE NEAR CARTERS, GA   686.77

 

  2018-05-24 16:15:00  
02381600 FAUSETT CREEK NEAR TALKING ROCK, GA 10 1.48 9.99 3,160 2018-05-24 16:45:00 FCTG1
02382200 TALKING ROCK CREEK NEAR HINTON, GA 10 1.58 144 19,000 2018-05-24 16:45:00 TKRG1
02382400 CARTERS RE-REGULATION LAKE NEAR CARTERS, GA   35.87

 

2018-05-24 16:15:00  
02382500 COOSAWATTEE RIVER AT CARTERS, GA 20 6.52 1,630 57,000 2018-05-24 16:30:00 CATG1
02383500 COOSAWATTEE RIVER NEAR PINE CHAPEL, GA 25 7.88 1,830 40,200 2018-05-24 16:00:00 RDBG1
02383520 COOSAWATTEE RIVER AT PINE CHAPEL, GA 22 5.03

 

40,200 2018-05-24 16:00:00 PING1
02384500 CONASAUGA RIVER AT GA 286, NEAR ETON, GA 12 4.38 348 33,200 2018-05-24 16:00:00 ETNG1
02384540 MILL CREEK NEAR CRANDALL, GA 8 1.73 17.9 2,240 2018-05-24 16:45:00 CNDG1
02385170 COAHULLA CREEK AT KEITHS MILL ROAD, NEAR DALTON,GA 16 8.02 101 1,860 2018-05-24 16:45:00 CHCG1
02385500 MILL CREEK AT DALTON, GA 11 4.32 28.3 5,680 2018-05-24 16:00:00 DLNG1
02385800 HOLLY CREEK NEAR CHATSWORTH, GA   2.22 81.1 20,600 2018-05-24 16:00:00 HOLG1
02387000 CONASAUGA RIVER AT TILTON, GA 18 4.29 914 40,000 2018-05-24 16:00:00 TLNG1
02387010 CONASAUGA RIVER AT SLOAN BRIDGE, BELOW DALTON, GA 18 2.10

 

36,800 2018-05-24 16:00:00 DLBG1
02387500 OOSTANAULA RIVER AT RESACA, GA 22 6.48 2,940 68,600 2018-05-24 16:15:00 RSCG1
02387520 OOSTANAULA RIVER AT CALHOUN, GA 21 7.07

 

45,500 2018-05-24 16:15:00 CALG1
02387600 OOTHKALOOGA CREEK AT GA 53 SPUR, AT CALHOUN, GA 18 7.65 93.1 2,790 2018-05-24 16:00:00 OTKG1
02388320 HEATH CREEK NEAR ARMUCHEE, GA 8 1.22 6.87 1,240 2018-05-24 14:45:00 ARMG1
02388350 ARMUCHEE CREEK AT OLD DALTON ROAD, NEAR ROME, GA 19 4.10 75.9 10,200 2018-05-24 15:45:00 ARCG1
02388500 OOSTANAULA RIVER NEAR ROME, GA 30 9.89 3,480 70,000 2018-05-24 14:45:00 RGAG1
02388525 OOSTANAULA RIVER AT US 27, AT ROME, GA 25 7.35

 

  2018-05-24 16:45:00 RTMG1
02388975 ETOWAH RIVER AT GA 136, NEAR LANDDRUM, GA 14 2.96 268 4,800 2018-05-24 16:45:00 LANG1
02389150 ETOWAH RIVER AT GA 9, NEAR DAWSONVILLE, GA 13 5.16 331 6,100 2018-05-24 16:00:00 DWSG1
02390000 AMICALOLA CREEK NEAR DAWSONVILLE, GA. 10 1.06 238 7,450 2018-05-24 16:15:00 DONG1
02390050 ETOWAH RIVER AT KELLY BRIDGE ROAD, NEAR MATT, GA 19 2.54 826 7,590 2018-05-24 16:00:00 BRTG1
02390140 SETTINGDOWN CREEK NEAR BALL GROUND, GA 13 2.31 62.3 1,200 2018-05-24 16:15:00 FREG1
02391540 SHARP MTN CREEK AT OLD GA 5, BELOW BALL GROUND, GA 18 3.95 111 1,600 2018-05-24 16:15:00 BALG1
02391840 HICKORY LOG CREEK NEAR CANTON, GA 8 1.28 16.7 550 2018-05-24 16:00:00 HLCG1
02391860 ETOWAH RIVER DOWNSTREAM OF I-575, AT CANTON, GA 17 5.10 1,320 15,400 2018-05-24 16:45:00 ECTG1
02392000 ETOWAH RIVER AT CANTON, GA 16 3.59 1,390 36,700 2018-05-24 16:15:00 CNNG1
02392360 SHOAL CREEK AT GA 108, NEAR WALESKA, GA 14 2.78 96.6 2,510 2018-05-24 16:15:00 WALG1
02392780 LITTLE RIVER AT GA 5, NEAR WOODSTOCK, GA 11 1.33 133 16,100 2018-05-24 16:15:00 WODG1
02392920 NOONDAY CR US CHASTAIN MEADOWS PKWY, MARIETTA, GA 11 2.81 25.7   2018-05-24 16:15:00 NBSG1
02392950 NOONDAY CREEK AT HAWKINS STORE RD, NR WOODSTOCK,GA 11 1.28 41.6 11,900 2018-05-24 16:30:00 NDYG1
02392975 NOONDAY CREEK AT SHALLOWFORD ROAD, NR WOODSTOCK,GA 10 2.05 48.5 11,400 2018-05-24 16:30:00 NOOG1
02393377 BUTLER CREEK AT MACK DOBBS ROAD, NR KENNESAW, GA 11 2.46 2.90 6,760 2018-05-24 16:00:00 BTCG1
02393419 ALLATOONA CREEK AT STILESBORO RD, NEAR ACWORTH, GA 13 5.14 12.6 16,600 2018-05-24 16:15:00 MAHG1
02393500 ALLATOONA LAKE NEAR CARTERSVILLE, GA   840.15

 

  2018-05-24 16:15:00 CVLG1
02393501 ETOWAH RIVER ALLATOONA DAM TW, ABV CARTERSVILLE,GA   692.41

 

  2018-05-24 16:15:00  
02394000 ETOWAH RIVER AT ALLATOONA DAM, ABV CARTERSVILLE,GA   3.64 3,900 40,400 2018-05-24 16:45:00 ETWG1
02394670 ETOWAH RIVER AT GA 61, NEAR CARTERSVILLE, GA 18 10.04 4,260 55,000 2018-05-24 16:00:00 CTVG1
02394682 RICHLAND CREEK AT OLD DALLAS RD, NEAR DALLAS, GA 8 1.92

 

  2018-05-24 16:30:00 RCDG1
02394820 EUHARLEE CREEK AT US 278, AT ROCKMART, GA 9 2.07 10.6 7,000 2018-05-24 16:30:00 RKMG1
02395000 ETOWAH RIVER NEAR KINGSTON,GA 20 3.74 821 52,000 2018-05-24 16:00:00 KGTG1
02395120 TWO RUN CREEK NEAR KINGSTON, GA 8 1.33 27.4 4,600 2018-05-24 16:00:00 KTRG1
02395980 ETOWAH RIVER AT GA 1 LOOP, NEAR ROME, GA 32 14.34 1,930 55,000 2018-05-24 16:00:00 ROEG1
02395996 ETOWAH RIVER AT COOSA VALLEY F.G., AT ROME, GA 32 8.53

 

  2018-05-24 16:00:00 ERRG1
02397000 COOSA RIVER (MAYO'S BAR) NEAR ROME, GA 24 13.58 7,380 100,000 2018-05-24 16:45:00 RMBG1
02397410 CEDAR CREEK AT GA AVE, AT CEDARTOWN, GA 15 3.11 3.98 16,500 2018-05-24 16:30:00 CTWG1
02397500 CEDAR CREEK NEAR CEDARTOWN, GA 11 0.90 66.7 17,000 2018-05-24 15:45:00 CCDG1
02397530 COOSA RIVER AT STATE LINE, AL/GA   14.22 8,940 91,100 2018-05-24 15:45:00  
02398000 CHATTOOGA RIVER AT SUMMERVILLE, GA 14 2.61 144 30,100 2018-05-24 16:45:00 SUMG1
02398037 CHATTOOGA RIVER AT CHATTOOGAVILLE, GA  

 

695   2003-02-10 23:30:00  
02411930 TALLAPOOSA RIVER BELOW TALLAPOOSA, GEORGIA 16 1.97 176 6,090 2018-05-24 16:00:00 TLAG1
02413000 LITTLE TALLAPOOSA RIVER AT US 27, AT CARROLLTON,GA 18 2.88 80.0 6,210 2018-05-24 16:00:00 CANG1
02413210 LITTLE TALLAPOOSA R AT GA 100, NEAR BOWDON, GA 17 3.96 237 4,310 2018-05-24 16:00:00 BWNG1
03544970 HIWASSEE RIVER AT RIVERSIDE DR, NR HIAWASSEE, GA 10 3.53 140 2,610 2018-05-24 16:45:00 HWEG1
03550500 NOTTELY RIVER NEAR BLAIRSVILLE, GA 13 2.24 211 12,900 2018-05-24 16:45:00 BRVG1
03558000 TOCCOA RIVER NEAR DIAL, GA   2.25 645 28,000 2018-05-24 16:30:00  
03566700 SOUTH CHICKAMAUGA CREEK AT RINGGOLD, GA 15 4.00 68.7 33,400 2018-05-24 16:30:00 SCKG1
03567340 WEST CHICKAMAUGA CR AT GA 146, NEAR LAKEVIEW, GA 11 1.14 94.0 7,880 2018-05-24 16:15:00 WCKG1
03568400 CHATTANOOGA CREEK AT GA193, NEAR FLINTSTONE, GA 10 3.15 13.1 1,150 2018-05-24 16:30:00 CCFG1
03568933 LOOKOUT CREEK NEAR NEW ENGLAND, GA 12 3.76 57.2 20,000 2018-05-24 16:00:00 ENGG1